Time;durP1;ratioP1;P1;durP2;ratioP2;P2;SDS_P1;SDS_P2;PMS_P1;PMS_P2;Temp;Humidity;BMP_temperature;BMP_pressure;BME280_temperature;BME280_humidity;BME280_pressure;Samples;Min_cycle;Max_cycle;Signal;HPM_P1;HPM_P2
2023/04/24 00:02:03;;;;;;;3.67;2.67;;;14.30;65.60;;;;;;4973559;28;20697;-83
2023/04/24 00:04:29;;;;;;;4.60;3.13;;;14.20;99.90;;;;;;4973373;28;20175;-82
2023/04/24 00:06:56;;;;;;;3.30;2.27;;;14.30;65.80;;;;;;4973433;28;20580;-81
2023/04/24 00:09:22;;;;;;;4.07;2.73;;;14.20;90.80;;;;;;4976254;28;20425;-79
2023/04/24 00:11:49;;;;;;;4.77;2.60;;;14.30;88.30;;;;;;4977245;28;20841;-80
2023/04/24 00:14:15;;;;;;;5.17;2.67;;;14.20;89.10;;;;;;4977305;28;20472;-82
2023/04/24 00:16:41;;;;;;;3.93;2.60;;;14.20;99.90;;;;;;4977271;28;20419;-82
2023/04/24 00:19:07;;;;;;;5.23;3.00;;;14.20;94.70;;;;;;4977056;28;20186;-81
2023/04/24 00:21:32;;;;;;;5.77;2.87;;;14.30;92.00;;;;;;4976631;28;20477;-80
2023/04/24 00:23:58;;;;;;;6.70;3.87;;;14.30;72.50;;;;;;4991789;28;20310;-81
2023/04/24 00:26:24;;;;;;;4.00;2.90;;;14.30;56.90;;;;;;4975731;28;20175;-81
2023/04/24 00:28:49;;;;;;;4.80;3.23;;;14.20;80.70;;;;;;4976466;28;20175;-81
2023/04/24 00:31:15;;;;;;;4.83;3.23;;;14.20;99.90;;;;;;4976946;28;20175;-82
2023/04/24 00:33:40;;;;;;;4.20;2.80;;;14.10;99.90;;;;;;4975724;28;20344;-82
2023/04/24 00:36:07;;;;;;;4.60;2.53;;;14.10;99.90;;;;;;4976504;28;20178;-82
2023/04/24 00:38:32;;;;;;;5.00;2.70;;;14.10;99.90;;;;;;4976861;28;20530;-80
2023/04/24 00:40:58;;;;;;;6.00;3.40;;;14.10;99.90;;;;;;4975324;28;20928;-82
2023/04/24 00:43:27;;;;;;;4.20;3.30;;;14.20;98.70;;;;;;4976519;28;20208;-83
2023/04/24 00:45:54;;;;;;;3.70;2.77;;;14.10;99.90;;;;;;4991310;28;20182;-82
2023/04/24 00:48:22;;;;;;;4.00;3.43;;;14.00;99.90;;;;;;4975391;28;20529;-82
2023/04/24 00:50:47;;;;;;;3.93;3.60;;;14.00;99.90;;;;;;4974961;28;20425;-81
2023/04/24 00:53:12;;;;;;;3.97;3.00;;;13.90;99.90;;;;;;4974752;28;20434;-80
2023/04/24 00:55:52;;;;;;;4.13;3.33;;;13.90;99.90;;;;;;4989895;28;20560;-79
2023/04/24 00:58:18;;;;;;;4.03;3.40;;;13.90;99.90;;;;;;4990995;28;20520;-81
2023/04/24 01:00:47;;;;;;;6.50;2.63;;;13.90;99.90;;;;;;4976169;28;20455;-81
2023/04/24 01:03:15;;;;;;;4.60;2.83;;;13.90;99.90;;;;;;4975111;28;20183;-81
2023/04/24 01:05:41;;;;;;;3.03;2.40;;;13.90;99.90;;;;;;4975820;28;20459;-83
2023/04/24 01:08:07;;;;;;;4.20;3.10;;;13.80;99.90;;;;;;4991229;28;20427;-82
2023/04/24 01:10:36;;;;;;;4.67;3.50;;;13.80;99.90;;;;;;4976164;28;20477;-81
2023/04/24 01:13:16;;;;;;;5.93;3.00;;;13.80;99.90;;;;;;4975888;28;20982;-81
2023/04/24 01:15:43;;;;;;;4.10;2.80;;;13.80;99.90;;;;;;4974950;28;20528;-82
2023/04/24 01:18:08;;;;;;;4.03;2.93;;;13.80;99.90;;;;;;4976061;28;20426;-82
2023/04/24 01:20:34;;;;;;;4.90;2.50;;;13.80;99.90;;;;;;4974539;28;20430;-82
2023/04/24 01:23:01;;;;;;;4.20;3.20;;;13.80;99.90;;;;;;4976067;28;20180;-81
2023/04/24 01:25:30;;;;;;;3.53;1.97;;;13.80;99.90;;;;;;4975651;28;20481;-81
2023/04/24 01:27:56;;;;;;;5.10;1.90;;;13.70;99.90;;;;;;4974544;28;20418;-78
2023/04/24 01:30:21;;;;;;;3.10;2.03;;;13.70;99.90;;;;;;4974663;28;20777;-81
2023/04/24 01:32:48;;;;;;;5.40;2.43;;;13.60;99.90;;;;;;4990928;28;20184;-82
2023/04/24 01:35:13;;;;;;;3.23;1.93;;;13.50;99.90;;;;;;4974743;28;20222;-82
2023/04/24 01:37:39;;;;;;;3.93;2.13;;;13.50;99.90;;;;;;4975696;28;20420;-83
2023/04/24 01:40:07;;;;;;;3.13;2.47;;;13.50;99.90;;;;;;4975943;28;20591;-83
2023/04/24 01:42:34;;;;;;;4.00;1.90;;;13.40;99.90;;;;;;4990816;28;20432;-83
2023/04/24 01:45:01;;;;;;;3.80;1.80;;;13.40;99.90;;;;;;4975858;28;20422;-83
2023/04/24 01:47:28;;;;;;;4.13;2.27;;;13.50;99.90;;;;;;4974395;28;20843;-83
2023/04/24 01:49:53;;;;;;;3.73;2.20;;;13.50;99.90;;;;;;4975843;28;20465;-83
2023/04/24 01:52:21;;;;;;;3.27;2.30;;;13.50;99.90;;;;;;4990428;28;20420;-83
2023/04/24 01:54:48;;;;;;;2.93;1.87;;;13.40;99.90;;;;;;4975627;28;20216;-82
2023/04/24 01:57:14;;;;;;;3.43;1.90;;;13.40;99.90;;;;;;4974408;28;20418;-82
2023/04/24 01:59:47;;;;;;;4.13;2.33;;;13.30;99.90;;;;;;4990556;28;20434;-82
2023/04/24 02:02:13;;;;;;;3.70;2.37;;;13.30;99.90;;;;;;4975559;28;20406;-82
2023/04/24 02:04:45;;;;;;;2.93;1.60;;;13.30;99.90;;;;;;4990431;28;20430;-83
2023/04/24 02:07:10;;;;;;;4.30;1.90;;;13.30;99.90;;;;;;4989461;28;20589;-79
2023/04/24 02:09:36;;;;;;;4.27;1.90;;;13.30;99.90;;;;;;4973796;28;20482;-81
2023/04/24 02:12:03;;;;;;;3.03;2.40;;;13.30;99.90;;;;;;4975370;28;20173;-81
2023/04/24 02:14:29;;;;;;;2.20;1.70;;;13.30;99.90;;;;;;4971651;28;20225;-81
2023/04/24 02:16:58;;;;;;;1.53;1.20;;;13.30;99.90;;;;;;4957366;28;20427;-81
2023/04/24 02:19:23;;;;;;;2.90;1.63;;;13.10;99.90;;;;;;4957544;28;20192;-83
2023/04/24 02:21:49;;;;;;;6.20;1.93;;;13.00;99.90;;;;;;4974460;28;20762;-83
2023/04/24 02:24:15;;;;;;;2.90;1.60;;;12.90;99.90;;;;;;4975000;28;20246;-84
2023/04/24 02:26:41;;;;;;;3.20;1.30;;;12.90;99.90;;;;;;4975062;28;20615;-78
2023/04/24 02:29:06;;;;;;;2.20;0.97;;;12.90;99.90;;;;;;4975064;28;20427;-81
2023/04/24 02:31:32;;;;;;;2.03;1.20;;;12.90;99.90;;;;;;4974544;28;20180;-82
2023/04/24 02:33:57;;;;;;;2.33;0.90;;;12.90;99.90;;;;;;4974903;28;20265;-83
2023/04/24 02:36:23;;;;;;;1.77;0.70;;;12.90;99.90;;;;;;4974437;28;20175;-83
2023/04/24 02:38:48;;;;;;;1.40;0.73;;;12.90;99.90;;;;;;4974830;28;20209;-82
2023/04/24 02:41:14;;;;;;;1.90;1.20;;;12.90;99.90;;;;;;4974803;28;20185;-82
2023/04/24 02:43:39;;;;;;;2.80;0.90;;;12.90;99.90;;;;;;4974953;28;20645;-84
2023/04/24 02:46:05;;;;;;;1.00;0.47;;;13.00;99.90;;;;;;4974761;28;20650;-82
2023/04/24 02:48:30;;;;;;;2.30;1.20;;;13.00;99.90;;;;;;4974510;28;20191;-82
2023/04/24 02:50:58;;;;;;;0.60;0.20;;;12.90;47.00;;;;;;4974369;28;20649;-83
2023/04/24 02:53:23;;;;;;;1.83;0.60;;;12.90;96.40;;;;;;4974532;28;20180;-82
2023/04/24 02:55:50;;;;;;;1.47;0.60;;;12.90;58.30;;;;;;4974621;28;20424;-82
2023/04/24 02:58:16;;;;;;;1.23;0.60;;;12.80;59.10;;;;;;4957343;28;20430;-82
2023/04/24 03:00:43;;;;;;;1.50;0.43;;;12.80;40.50;;;;;;4932455;28;20834;-83
2023/04/24 03:03:08;;;;;;;0.80;0.40;;;12.80;73.30;;;;;;4974509;28;20406;-83
2023/04/24 03:05:34;;;;;;;1.13;0.50;;;12.80;30.20;;;;;;4974115;28;20428;-82
2023/04/24 03:07:59;;;;;;;1.73;0.77;;;12.80;6.10;;;;;;4974279;28;20257;-84
2023/04/24 03:10:25;;;;;;;1.10;0.33;;;12.70;15.40;;;;;;4974357;28;20247;-83
2023/04/24 03:12:51;;;;;;;1.40;0.60;;;12.70;5.30;;;;;;4974378;28;20212;-81
2023/04/24 03:15:16;;;;;;;1.60;0.67;;;12.70;1.00;;;;;;4956994;28;20677;-84
2023/04/24 03:17:42;;;;;;;3.73;0.40;;;12.60;2.40;;;;;;4974401;28;20203;-84
2023/04/24 03:20:09;;;;;;;3.30;0.83;;;12.60;1.00;;;;;;4974171;28;20186;-83
2023/04/24 03:22:35;;;;;;;1.53;0.30;;;12.70;1.00;;;;;;4956609;28;20180;-83
2023/04/24 03:25:00;;;;;;;1.40;0.50;;;12.60;1.00;;;;;;4953580;28;20562;-84
2023/04/24 03:27:30;;;;;;;1.27;0.50;;;12.60;1.00;;;;;;4954988;29;20646;-84
2023/04/24 03:29:56;;;;;;;1.00;0.40;;;12.60;1.00;;;;;;4953814;29;20436;-83
2023/04/24 03:32:22;;;;;;;0.90;0.57;;;12.60;1.00;;;;;;4953760;29;20998;-84
2023/04/24 03:34:48;;;;;;;0.73;0.30;;;12.60;1.00;;;;;;4969751;28;20715;-84
2023/04/24 03:37:14;;;;;;;1.23;0.57;;;12.60;1.00;;;;;;4969329;28;20448;-83
2023/04/24 03:39:41;;;;;;;0.90;0.47;;;12.40;1.00;;;;;;4954889;28;20900;-85
2023/04/24 03:42:08;;;;;;;1.50;0.30;;;12.50;1.00;;;;;;4954889;28;20483;-83
2023/04/24 03:44:34;;;;;;;1.17;0.60;;;12.50;1.00;;;;;;4958113;28;20455;-83
2023/04/24 03:46:59;;;;;;;1.10;0.40;;;12.40;1.00;;;;;;4958691;29;20427;-85
2023/04/24 03:49:25;;;;;;;0.80;0.50;;;12.40;1.00;;;;;;4958606;28;20419;-84
2023/04/24 03:51:52;;;;;;;1.27;0.50;;;12.50;1.00;;;;;;4958303;28;20172;-81
2023/04/24 03:54:18;;;;;;;1.20;0.50;;;12.40;1.00;;;;;;4958532;28;20206;-83
2023/04/24 03:56:43;;;;;;;1.60;0.47;;;12.30;1.00;;;;;;4957281;29;20418;-82
2023/04/24 03:59:09;;;;;;;2.20;0.50;;;12.30;1.00;;;;;;4958530;29;20416;-82
2023/04/24 04:01:37;;;;;;;0.87;0.50;;;12.30;1.00;;;;;;4958451;29;20252;-82
2023/04/24 04:04:04;;;;;;;0.90;0.40;;;12.30;1.00;;;;;;4958363;28;20177;-82
2023/04/24 04:06:30;;;;;;;1.43;0.40;;;12.30;1.00;;;;;;4957971;28;20412;-82
2023/04/24 04:08:57;;;;;;;1.77;0.33;;;12.30;1.00;;;;;;4973149;28;20433;-81
2023/04/24 04:11:23;;;;;;;1.20;0.40;;;12.40;1.00;;;;;;4958289;28;20520;-83
2023/04/24 04:13:49;;;;;;;0.60;0.33;;;12.30;1.00;;;;;;4958078;29;20464;-83
2023/04/24 04:16:19;;;;;;;0.70;0.40;;;12.30;1.00;;;;;;4973073;28;20436;-83
2023/04/24 04:18:45;;;;;;;1.00;0.50;;;12.30;1.00;;;;;;4958213;28;20224;-83
2023/04/24 04:21:11;;;;;;;0.57;0.30;;;12.20;1.00;;;;;;4957838;28;20426;-83
2023/04/24 04:23:36;;;;;;;3.73;1.10;;;12.10;1.00;;;;;;4959676;28;20455;-83
2023/04/24 04:26:03;;;;;;;0.97;0.30;;;12.10;1.00;;;;;;4960047;28;20455;-82
2023/04/24 04:28:32;;;;;;;1.83;0.70;;;12.20;1.00;;;;;;4976087;28;20200;-84
2023/04/24 04:30:57;;;;;;;1.37;0.33;;;12.10;1.00;;;;;;4960009;28;20457;-84
2023/04/24 04:33:24;;;;;;;0.93;0.40;;;12.10;1.00;;;;;;4977167;28;20413;-84
2023/04/24 04:35:51;;;;;;;1.60;0.50;;;12.10;1.00;;;;;;4976763;28;20227;-84
2023/04/24 04:38:18;;;;;;;1.27;0.40;;;12.20;1.00;;;;;;4977107;28;20422;-84
2023/04/24 04:40:43;;;;;;;0.80;0.35;;;12.20;1.00;;;;;;4974803;28;20484;-82
2023/04/24 04:43:10;;;;;;;0.80;0.33;;;12.20;1.00;;;;;;4976971;28;20173;-82
2023/04/24 04:45:35;;;;;;;1.00;0.30;;;12.30;99.90;;;;;;4976938;28;20240;-82
2023/04/24 04:48:02;;;;;;;0.77;0.30;;;12.30;99.90;;;;;;4959530;28;20924;-82
2023/04/24 04:50:27;;;;;;;1.37;0.40;;;12.30;99.90;;;;;;4976547;28;20657;-82
2023/04/24 04:52:53;;;;;;;1.27;0.30;;;12.20;99.90;;;;;;4976808;28;20424;-82
2023/04/24 04:55:21;;;;;;;0.80;0.40;;;12.20;99.90;;;;;;4976210;28;20225;-82
2023/04/24 04:57:47;;;;;;;0.70;0.40;;;12.20;99.90;;;;;;4976726;28;20529;-84
2023/04/24 05:00:13;;;;;;;1.00;0.37;;;12.20;99.90;;;;;;4976632;28;20436;-84
2023/04/24 05:02:39;;;;;;;0.70;0.23;;;12.20;99.90;;;;;;4959199;28;20176;-85
2023/04/24 05:05:06;;;;;;;0.80;0.30;;;12.20;99.90;;;;;;4976208;28;20482;-85
2023/04/24 05:07:31;;;;;;;0.83;0.30;;;12.20;99.90;;;;;;4976628;28;20180;-83
2023/04/24 05:09:57;;;;;;;1.30;0.63;;;12.30;99.90;;;;;;4959225;28;20404;-85
2023/04/24 05:12:25;;;;;;;1.10;0.40;;;12.30;99.90;;;;;;4959084;28;20177;-84
2023/04/24 05:14:54;;;;;;;1.33;0.37;;;12.40;99.90;;;;;;4918179;28;20661;-84
2023/04/24 05:17:19;;;;;;;0.80;0.63;;;12.50;99.90;;;;;;4976303;28;20413;-85
2023/04/24 05:19:45;;;;;;;1.07;0.30;;;12.60;99.90;;;;;;4976237;28;20424;-81
2023/04/24 05:22:11;;;;;;;1.30;0.43;;;12.70;99.90;;;;;;4975821;28;20185;-79
2023/04/24 05:24:37;;;;;;;1.00;0.67;;;12.90;59.90;;;;;;4975883;28;20209;-83
2023/04/24 05:27:04;;;;;;;0.73;0.20;;;12.90;1.00;;;;;;4976018;28;20421;-84
2023/04/24 05:29:31;;;;;;;0.53;0.20;;;13.00;1.00;;;;;;4975097;28;20174;-84
2023/04/24 05:31:59;;;;;;;0.63;0.33;;;13.30;99.90;;;;;;4958608;28;20488;-85
2023/04/24 05:34:25;;;;;;;2.30;0.30;;;13.40;1.00;;;;;;4975435;28;20519;-84
2023/04/24 05:36:50;;;;;;;0.57;0.20;;;13.50;99.90;;;;;;4974355;28;20433;-83
2023/04/24 05:39:16;;;;;;;0.67;0.47;;;13.60;1.00;;;;;;4975111;28;20180;-84
2023/04/24 05:41:42;;;;;;;0.73;0.30;;;13.80;1.00;;;;;;4975957;28;20180;-84
2023/04/24 05:44:07;;;;;;;0.70;0.20;;;14.20;99.90;;;;;;4958643;28;20807;-85
2023/04/24 05:46:33;;;;;;;1.10;0.43;;;14.60;99.90;;;;;;4975807;28;20255;-84
2023/04/24 05:48:58;;;;;;;2.27;0.40;;;15.00;1.00;;;;;;4975822;28;20177;-81
2023/04/24 05:51:31;;;;;;;0.70;0.30;;;15.20;1.00;;;;;;4958113;28;20757;-84
2023/04/24 05:53:58;;;;;;;1.07;0.20;;;15.40;99.90;;;;;;4976223;28;20234;-86
2023/04/24 05:56:24;;;;;;;0.77;0.23;;;15.50;1.00;;;;;;4958397;28;20437;-82
2023/04/24 05:58:52;;;;;;;0.70;0.37;;;15.60;1.00;;;;;;4974271;28;20964;-79
2023/04/24 06:01:18;;;;;;;0.50;0.20;;;16.00;1.00;;;;;;4975653;28;20520;-80
2023/04/24 06:03:43;;;;;;;0.57;0.20;;;16.10;99.90;;;;;;4975645;28;20414;-89
2023/04/24 06:06:09;;;;;;;1.80;0.20;;;16.20;99.90;;;;;;4957108;28;20185;-87
2023/04/24 06:08:35;;;;;;;1.67;0.20;;;16.30;99.90;;;;;;4958643;28;20190;-85
2023/04/24 06:11:01;;;;;;;1.23;0.20;;;16.70;99.90;;;;;;4975137;28;20234;-86
2023/04/24 06:13:26;;;;;;;0.50;0.20;;;16.80;99.90;;;;;;4975274;28;20418;-87
2023/04/24 06:15:55;;;;;;;0.70;0.20;;;16.90;99.90;;;;;;4975473;28;20183;-86
2023/04/24 06:18:20;;;;;;;1.00;0.50;;;16.80;99.90;;;;;;4957894;28;20175;-83
2023/04/24 06:20:49;;;;;;;0.60;0.50;;;17.10;99.90;;;;;;4975039;28;20520;-80
2023/04/24 06:23:14;;;;;;;1.80;0.40;;;17.50;95.20;;;;;;4974989;28;20172;-83
2023/04/24 06:25:40;;;;;;;0.80;0.40;;;17.70;67.30;;;;;;4957526;28;20838;-80
2023/04/24 06:28:06;;;;;;;0.87;0.30;;;17.80;48.90;;;;;;4957787;28;20269;-81
2023/04/24 06:30:32;;;;;;;0.60;0.20;;;17.80;37.10;;;;;;4975000;28;20173;-82
2023/04/24 06:32:59;;;;;;;1.57;0.50;;;18.00;26.60;;;;;;4974417;28;20198;-82
2023/04/24 06:35:25;;;;;;;1.27;0.30;;;18.20;25.90;;;;;;4917316;28;20975;-78
2023/04/24 06:37:51;;;;;;;0.80;0.37;;;18.70;26.30;;;;;;4957547;28;20188;-82
2023/04/24 06:40:18;;;;;;;1.47;0.40;;;18.50;5.90;;;;;;4974902;28;20183;-84
2023/04/24 06:42:44;;;;;;;0.80;0.30;;;18.40;8.00;;;;;;4957507;28;20889;-81
2023/04/24 06:45:11;;;;;;;2.70;0.40;;;18.60;9.30;;;;;;4974843;28;20472;-80
2023/04/24 06:47:37;;;;;;;2.60;0.97;;;19.10;7.60;;;;;;4957288;28;20179;-81
2023/04/24 06:50:03;;;;;;;0.80;0.47;;;19.20;1.00;;;;;;4956926;28;20430;-80
2023/04/24 06:52:32;;;;;;;1.33;0.47;;;19.50;1.00;;;;;;4957259;28;20420;-81
2023/04/24 06:55:02;;;;;;;1.30;0.30;;;19.50;1.00;;;;;;4974646;28;20466;-81
2023/04/24 06:57:32;;;;;;;1.50;0.67;;;19.60;1.00;;;;;;4974669;28;20404;-80
2023/04/24 06:59:58;;;;;;;1.60;0.50;;;19.80;1.00;;;;;;4974202;28;20435;-81
2023/04/24 07:02:25;;;;;;;2.67;0.50;;;20.20;1.00;;;;;;4973263;28;20784;-80
2023/04/24 07:04:52;;;;;;;0.70;0.40;;;20.40;1.00;;;;;;4956987;28;20208;-80
2023/04/24 07:07:18;;;;;;;0.60;0.60;;;20.30;1.00;;;;;;4957068;28;20786;-79
2023/04/24 07:09:45;;;;;;;0.90;0.40;;;20.10;1.00;;;;;;4956959;28;20238;-80
2023/04/24 07:12:11;;;;;;;0.97;0.30;;;20.30;1.00;;;;;;4974422;28;20633;-80
2023/04/24 07:14:37;;;;;;;3.60;1.00;;;20.00;1.00;;;;;;4973084;28;20913;-80
2023/04/24 07:17:05;;;;;;;1.50;0.80;;;20.30;1.00;;;;;;4956905;28;20515;-79
2023/04/24 07:19:30;;;;;;;1.27;0.60;;;20.20;1.00;;;;;;4974139;28;20446;-80
2023/04/24 07:21:58;;;;;;;0.93;0.87;;;20.20;1.00;;;;;;4974174;28;20920;-81
2023/04/24 07:24:24;;;;;;;1.30;0.90;;;20.10;1.00;;;;;;4974098;28;20224;-79
2023/04/24 07:26:51;;;;;;;2.03;1.00;;;19.80;1.00;;;;;;4973091;28;20486;-80
2023/04/24 07:29:17;;;;;;;1.83;0.80;;;19.40;1.00;;;;;;4974340;28;20430;-80
2023/04/24 07:31:42;;;;;;;2.50;0.90;;;19.30;1.00;;;;;;4974250;28;20407;-79
2023/04/24 07:34:08;;;;;;;1.70;0.67;;;19.00;1.00;;;;;;4972934;28;20207;-79
2023/04/24 07:36:33;;;;;;;2.90;1.10;;;18.60;1.00;;;;;;4973827;28;20184;-80
2023/04/24 07:38:59;;;;;;;1.33;0.80;;;18.30;1.00;;;;;;4956810;28;20388;-80
2023/04/24 07:41:25;;;;;;;1.40;0.90;;;18.20;1.00;;;;;;4974053;28;20184;-79
2023/04/24 07:43:50;;;;;;;2.30;0.73;;;18.30;1.00;;;;;;4974066;28;20180;-80
2023/04/24 07:46:16;;;;;;;1.93;0.83;;;18.90;1.00;;;;;;4974060;28;20183;-80
2023/04/24 07:48:42;;;;;;;1.23;0.40;;;19.40;1.00;;;;;;4974050;28;20180;-80
2023/04/24 07:51:09;;;;;;;1.70;1.07;;;19.50;1.00;;;;;;4973745;28;20595;-80
2023/04/24 07:53:35;;;;;;;3.00;0.97;;;19.20;1.00;;;;;;4973823;28;20547;-80
2023/04/24 07:56:00;;;;;;;1.00;0.90;;;19.00;1.00;;;;;;4956739;28;20436;-80
2023/04/24 07:58:26;;;;;;;1.63;1.00;;;19.00;1.00;;;;;;4973998;28;20536;-80
2023/04/24 08:00:51;;;;;;;1.53;1.00;;;19.00;1.00;;;;;;4973989;28;20758;-80
2023/04/24 08:03:19;;;;;;;2.33;0.87;;;19.50;1.00;;;;;;4972659;28;20204;-80
2023/04/24 08:05:44;;;;;;;1.33;0.90;;;19.70;1.00;;;;;;4973559;28;20222;-80
2023/04/24 08:08:10;;;;;;;1.43;0.87;;;19.30;1.00;;;;;;4972547;28;20430;-80
2023/04/24 08:10:35;;;;;;;2.90;1.63;;;18.70;1.00;;;;;;4973857;28;20178;-80
2023/04/24 08:13:01;;;;;;;1.80;1.30;;;18.10;1.00;;;;;;4973762;28;20187;-79
2023/04/24 08:15:27;;;;;;;1.90;1.70;;;17.70;1.00;;;;;;4973502;28;20589;-79
2023/04/24 08:17:53;;;;;;;2.93;1.47;;;17.40;1.00;;;;;;4973722;28;20568;-78
2023/04/24 08:20:18;;;;;;;2.00;1.80;;;17.30;1.00;;;;;;4933278;28;20525;-79
2023/04/24 08:22:47;;;;;;;2.90;1.10;;;17.30;1.00;;;;;;4973694;28;20172;-78
2023/04/24 08:25:12;;;;;;;2.03;1.80;;;17.60;1.00;;;;;;4973587;28;20217;-78
2023/04/24 08:27:38;;;;;;;2.03;1.73;;;17.60;1.00;;;;;;4956311;28;20431;-81
2023/04/24 08:30:06;;;;;;;2.97;2.00;;;17.00;1.00;;;;;;4975986;28;20526;-79
2023/04/24 08:32:31;;;;;;;3.30;2.23;;;16.70;1.00;;;;;;4977129;28;20660;-77
2023/04/24 08:34:57;;;;;;;3.90;1.80;;;17.20;1.00;;;;;;4976725;28;20475;-80
2023/04/24 08:37:23;;;;;;;3.20;2.30;;;17.80;1.00;;;;;;4977071;28;20297;-80
2023/04/24 08:39:50;;;;;;;4.80;2.13;;;18.00;1.00;;;;;;4976975;28;20424;-78
2023/04/24 08:42:17;;;;;;;5.20;2.10;;;18.10;1.00;;;;;;4977053;28;20426;-79
2023/04/24 08:44:44;;;;;;;2.20;2.00;;;18.50;1.00;;;;;;4977099;28;20954;-79
2023/04/24 08:47:10;;;;;;;2.50;1.80;;;19.40;1.00;;;;;;4976896;28;20801;-80
2023/04/24 08:49:39;;;;;;;1.67;1.50;;;20.30;1.00;;;;;;4976601;28;20488;-79
2023/04/24 08:52:08;;;;;;;2.60;2.40;;;20.90;1.00;;;;;;4976780;28;20449;-80
2023/04/24 08:54:35;;;;;;;2.60;2.13;;;21.10;1.00;;;;;;4975570;28;20838;-80
2023/04/24 08:57:03;;;;;;;2.43;2.07;;;20.90;1.00;;;;;;4976550;28;20424;-78
2023/04/24 08:59:29;;;;;;;5.97;3.73;;;20.40;1.00;;;;;;4976397;28;20830;-78
2023/04/24 09:01:56;;;;;;;3.27;2.63;;;20.50;1.00;;;;;;4976596;28;20410;-78
2023/04/24 09:04:24;;;;;;;3.03;2.70;;;20.20;1.00;;;;;;4976334;28;20466;-80
2023/04/24 09:06:50;;;;;;;5.10;2.73;;;19.80;1.00;;;;;;4976547;28;20419;-80
2023/04/24 09:09:18;;;;;;;3.93;2.80;;;19.40;1.00;;;;;;4976538;28;20442;-77
2023/04/24 09:11:43;;;;;;;4.70;2.77;;;18.90;1.00;;;;;;4976350;28;20423;-80
2023/04/24 09:14:13;;;;;;;2.43;2.23;;;18.70;1.00;;;;;;4975176;28;20478;-80
2023/04/24 09:16:38;;;;;;;3.57;3.07;;;18.40;1.00;;;;;;4976422;28;20170;-80
2023/04/24 09:19:04;;;;;;;3.60;2.60;;;17.80;1.00;;;;;;4976439;28;20471;-80
2023/04/24 09:21:36;;;;;;;3.70;2.67;;;17.60;1.00;;;;;;4976131;28;20242;-81
2023/04/24 09:24:05;;;;;;;3.07;2.77;;;17.10;1.00;;;;;;4976152;28;20219;-82
2023/04/24 09:26:32;;;;;;;2.90;2.30;;;17.00;1.00;;;;;;4976259;28;20434;-80
2023/04/24 09:28:59;;;;;;;2.53;2.33;;;17.00;1.00;;;;;;4976203;28;20424;-79
2023/04/24 09:31:27;;;;;;;2.63;2.40;;;16.90;1.00;;;;;;4976240;28;20421;-80
2023/04/24 09:34:05;;;;;;;3.33;2.83;;;16.80;1.00;;;;;;4976086;28;20467;-81
2023/04/24 09:36:42;;;;;;;3.47;3.17;;;16.50;1.00;;;;;;4975850;28;20522;-82
2023/04/24 09:39:13;;;;;;;4.43;2.80;;;16.30;1.00;;;;;;4976182;28;20766;-82
2023/04/24 09:41:46;;;;;;;3.50;2.70;;;16.30;1.00;;;;;;4932787;28;20450;-82
2023/04/24 09:44:22;;;;;;;3.00;2.67;;;16.30;1.00;;;;;;4975985;28;20410;-78
2023/04/24 09:46:53;;;;;;;4.07;3.10;;;16.50;1.00;;;;;;4975881;28;20418;-79
2023/04/24 09:49:23;;;;;;;6.63;2.70;;;16.60;1.00;;;;;;4975383;28;20495;-82
2023/04/24 09:51:52;;;;;;;3.20;1.40;;;16.60;1.00;;;;;;4990729;28;20910;-83
2023/04/24 09:54:21;;;;;;;2.70;2.17;;;16.40;1.00;;;;;;4975630;28;20502;-83
2023/04/24 09:56:50;;;;;;;4.03;2.77;;;16.40;1.00;;;;;;4975748;28;20432;-82
2023/04/24 09:59:18;;;;;;;3.23;2.80;;;16.30;1.00;;;;;;4975856;28;20456;-82
2023/04/24 10:01:48;;;;;;;3.40;2.53;;;16.30;1.00;;;;;;4975428;28;20425;-81
2023/04/24 10:04:24;;;;;;;4.97;2.43;;;16.40;1.00;;;;;;4957820;28;20424;-84
2023/04/24 10:06:54;;;;;;;2.60;2.33;;;16.60;13.30;;;;;;4974138;28;20429;-82
2023/04/24 10:09:22;;;;;;;5.53;3.00;;;16.80;20.90;;;;;;4975458;28;20421;-81
2023/04/24 10:11:49;;;;;;;3.77;3.37;;;16.70;1.00;;;;;;4975323;28;20426;-81
2023/04/24 10:14:17;;;;;;;3.70;3.17;;;16.80;1.00;;;;;;4975226;28;20535;-81
2023/04/24 10:16:43;;;;;;;4.60;3.10;;;16.80;1.00;;;;;;4957806;28;20426;-78
2023/04/24 10:19:09;;;;;;;4.00;3.60;;;16.90;1.00;;;;;;4974800;28;20463;-78
2023/04/24 10:21:37;;;;;;;3.33;2.67;;;17.10;1.00;;;;;;4990174;28;20481;-78
2023/04/24 10:24:04;;;;;;;4.90;3.40;;;17.40;1.00;;;;;;4973818;28;20504;-78
2023/04/24 10:26:30;;;;;;;4.27;3.20;;;17.70;1.00;;;;;;4975050;28;20444;-78
2023/04/24 10:28:57;;;;;;;4.90;4.17;;;17.70;1.00;;;;;;4974947;28;20423;-77
2023/04/24 10:31:23;;;;;;;4.83;4.17;;;17.80;1.00;;;;;;4974981;28;20186;-79
2023/04/24 10:33:51;;;;;;;6.23;4.30;;;17.70;1.00;;;;;;4957512;28;20572;-79
2023/04/24 11:02:58;;;;;;;6.90;5.67;;;16.30;1.00;;;;;;5132410;27;1175368;-81
2023/04/24 11:05:56;;;;;;;7.30;5.33;;;17.60;1.00;;;;;;5111844;27;20427;-78
2023/04/24 11:08:30;;;;;;;7.57;5.47;;;17.70;1.00;;;;;;5132975;27;20423;-78
2023/04/24 11:11:02;;;;;;;6.00;5.30;;;17.80;1.00;;;;;;5150827;27;20401;-79
2023/04/24 11:13:53;;;;;;;5.33;4.83;;;17.70;1.00;;;;;;5151613;27;20405;-79
2023/04/24 11:16:33;;;;;;;5.83;5.10;;;18.40;1.00;;;;;;5151469;27;20408;-79
2023/04/24 11:19:07;;;;;;;5.00;4.60;;;18.80;1.00;;;;;;5150335;27;20415;-81
2023/04/24 11:22:01;;;;;;;5.30;4.80;;;18.70;1.00;;;;;;5150646;27;20465;-78
2023/04/24 11:24:39;;;;;;;4.37;3.97;;;18.40;1.00;;;;;;5150895;27;20408;-79
2023/04/24 11:27:04;;;;;;;6.63;5.77;;;18.00;1.00;;;;;;5132629;27;20421;-79
2023/04/24 11:29:40;;;;;;;7.00;4.23;;;17.80;1.00;;;;;;5150923;27;20403;-79
2023/04/24 11:32:16;;;;;;;6.60;4.80;;;17.80;1.00;;;;;;5132898;27;20171;-80
2023/04/24 11:34:49;;;;;;;6.90;5.30;;;17.70;1.00;;;;;;5133100;27;20753;-78
2023/04/24 11:37:15;;;;;;;5.93;3.90;;;17.80;1.00;;;;;;5142229;27;20762;-80
2023/04/24 11:39:40;;;;;;;7.20;4.93;;;17.80;1.00;;;;;;5129901;28;20414;-79
2023/04/24 11:42:07;;;;;;;5.30;4.30;;;17.90;1.00;;;;;;5130379;28;20820;-78
2023/04/24 11:44:34;;;;;;;4.60;4.07;;;18.00;1.00;;;;;;5129914;28;20158;-79
2023/04/24 11:47:01;;;;;;;4.20;3.80;;;18.00;1.00;;;;;;5111323;28;20428;-79
2023/04/24 11:49:29;;;;;;;5.77;4.27;;;17.70;1.00;;;;;;5130049;28;20909;-78
2023/04/24 11:51:55;;;;;;;5.20;3.83;;;17.70;1.00;;;;;;5111759;28;20443;-79
2023/04/24 11:54:21;;;;;;;5.67;3.87;;;17.60;1.00;;;;;;5129313;28;20413;-78
2023/04/24 11:56:47;;;;;;;5.30;3.27;;;17.70;1.00;;;;;;5130187;28;20511;-78
2023/04/24 11:59:14;;;;;;;5.70;3.67;;;17.80;1.00;;;;;;5107415;27;20186;-78
2023/04/24 12:01:44;;;;;;;3.30;3.00;;;18.50;1.00;;;;;;5146663;27;20464;-79
2023/04/24 12:04:10;;;;;;;5.67;3.93;;;19.40;1.00;;;;;;5136743;27;20414;-79
2023/04/24 12:06:36;;;;;;;4.60;3.80;;;20.00;1.00;;;;;;5136719;27;20429;-79
2023/04/24 12:09:01;;;;;;;4.00;3.00;;;20.20;1.00;;;;;;5136348;27;20174;-80
2023/04/24 12:11:27;;;;;;;5.33;3.70;;;19.90;1.00;;;;;;5118368;27;20220;-79
2023/04/24 12:13:52;;;;;;;4.77;3.20;;;19.60;1.00;;;;;;5136698;27;20252;-80
2023/04/24 12:16:18;;;;;;;3.53;2.93;;;19.30;1.00;;;;;;5118306;27;20261;-81
2023/04/24 12:18:47;;;;;;;3.43;3.13;;;19.20;1.00;;;;;;5117906;27;20185;-80
2023/04/24 12:21:24;;;;;;;3.60;2.80;;;19.10;1.00;;;;;;5136233;27;20212;-82
2023/04/24 12:23:50;;;;;;;2.77;2.47;;;18.70;1.00;;;;;;5136193;27;20472;-80
2023/04/24 12:26:20;;;;;;;3.80;2.90;;;18.50;1.00;;;;;;5136235;27;20452;-80
2023/04/24 12:28:49;;;;;;;2.47;2.17;;;18.30;1.00;;;;;;5117990;27;20429;-80
2023/04/24 12:31:16;;;;;;;6.33;4.10;;;18.20;1.00;;;;;;5117915;27;20510;-81
2023/04/24 12:33:43;;;;;;;2.77;2.30;;;17.70;1.00;;;;;;5136264;27;20420;-80
2023/04/24 12:36:12;;;;;;;3.10;2.80;;;17.50;1.00;;;;;;5136329;27;20422;-80
2023/04/24 12:38:40;;;;;;;4.37;3.70;;;17.40;1.00;;;;;;5135751;27;20431;-80
2023/04/24 12:41:08;;;;;;;3.33;2.70;;;17.50;1.00;;;;;;5136137;27;20497;-81
2023/04/24 12:43:34;;;;;;;3.00;2.60;;;17.40;1.00;;;;;;5135905;27;20864;-79
2023/04/24 12:45:59;;;;;;;4.30;3.63;;;16.90;1.00;;;;;;5135511;27;20420;-80
2023/04/24 12:48:26;;;;;;;3.60;3.23;;;16.70;1.00;;;;;;5135360;27;20835;-79
2023/04/24 12:50:52;;;;;;;3.90;3.60;;;16.30;1.00;;;;;;5135583;27;20218;-80
2023/04/24 12:53:17;;;;;;;3.67;2.87;;;16.30;1.00;;;;;;5135752;27;20915;-81
2023/04/24 12:55:44;;;;;;;3.80;2.40;;;16.40;1.00;;;;;;5116604;27;20175;-79
2023/04/24 12:58:10;;;;;;;2.43;1.67;;;16.00;1.00;;;;;;5117532;27;20520;-80
2023/04/24 13:00:36;;;;;;;3.07;1.20;;;15.60;1.00;;;;;;5116855;27;20468;-79
2023/04/24 13:03:01;;;;;;;2.83;1.53;;;15.30;1.00;;;;;;5060817;27;20186;-78
2023/04/24 13:05:27;;;;;;;2.73;2.20;;;15.30;1.00;;;;;;5135734;27;20414;-79
2023/04/24 13:07:52;;;;;;;2.20;1.70;;;15.30;1.00;;;;;;5100185;27;20171;-78
2023/04/24 13:10:18;;;;;;;2.70;2.00;;;15.30;1.00;;;;;;5124479;27;20187;-79
2023/04/24 13:12:45;;;;;;;3.37;1.80;;;15.30;1.00;;;;;;5115074;27;20172;-78
2023/04/24 13:15:11;;;;;;;3.13;2.40;;;15.30;1.00;;;;;;5114014;28;20510;-78
2023/04/24 13:17:37;;;;;;;3.03;1.83;;;15.40;1.00;;;;;;5114903;28;20441;-78
2023/04/24 13:20:03;;;;;;;2.60;1.83;;;15.50;1.00;;;;;;5114677;28;20540;-79